createdAt,value
2023-04-25T00:00:51.564Z,2101.00
2023-04-25T00:01:51.622Z,2103.00
2023-04-25T00:02:51.813Z,2114.00
2023-04-25T00:03:52.223Z,2101.00
2023-04-25T00:04:51.846Z,2102.00
2023-04-25T00:05:51.802Z,2096.00
2023-04-25T00:06:51.829Z,2097.00
2023-04-25T00:07:51.898Z,2108.00
2023-04-25T00:08:51.915Z,2095.00
2023-04-25T00:09:51.980Z,2084.00
2023-04-25T00:10:52.055Z,2097.00
2023-04-25T00:11:52.075Z,2090.00
2023-04-25T00:12:52.144Z,2093.00
2023-04-25T00:13:52.214Z,2101.00
2023-04-25T00:14:52.281Z,2088.00
2023-04-25T00:15:52.427Z,2086.00
2023-04-25T00:16:52.368Z,2078.00
2023-04-25T00:17:52.461Z,2070.00
2023-04-25T00:18:52.484Z,2079.00
2023-04-25T00:19:52.473Z,2077.00
2023-04-25T00:20:52.551Z,2074.00
2023-04-25T00:21:52.550Z,2066.00
2023-04-25T00:22:52.638Z,2079.00
2023-04-25T00:23:52.834Z,2074.00
2023-04-25T00:24:52.662Z,2072.00
2023-04-25T00:25:52.689Z,2066.00
2023-04-25T00:26:52.760Z,2068.00
2023-04-25T00:27:52.769Z,2067.00
2023-04-25T00:28:52.838Z,2066.00
2023-04-25T00:29:52.864Z,2069.00
2023-04-25T00:30:52.941Z,2063.00
2023-04-25T00:31:52.999Z,2061.00
2023-04-25T00:32:53.062Z,2063.00
2023-04-25T00:33:53.290Z,2060.00
2023-04-25T00:34:53.107Z,2059.00
2023-04-25T00:35:53.120Z,2059.00
2023-04-25T00:36:53.192Z,2049.00
2023-04-25T00:37:53.225Z,2052.00
2023-04-25T00:38:53.251Z,2044.00
2023-04-25T00:39:55.248Z,2051.00
2023-04-25T00:40:53.372Z,2047.00
2023-04-25T00:41:53.435Z,2049.00
2023-04-25T00:42:53.476Z,2059.00
2023-04-25T00:43:53.702Z,2045.00
2023-04-25T00:44:53.609Z,2049.00
2023-04-25T00:45:53.629Z,2045.00
2023-04-25T00:46:53.751Z,2035.00
2023-04-25T00:47:53.810Z,2036.00
2023-04-25T00:48:53.775Z,2039.00
2023-04-25T00:49:53.841Z,2040.00
2023-04-25T00:50:53.933Z,2028.00
2023-04-25T00:51:53.938Z,2038.00
2023-04-25T00:52:54.007Z,2036.00
2023-04-25T00:53:54.123Z,2031.00
2023-04-25T00:54:54.100Z,2037.00
2023-04-25T00:55:54.135Z,2023.00
2023-04-25T00:56:54.164Z,2028.00
2023-04-25T00:57:54.197Z,2036.00
2023-04-25T00:58:54.251Z,2027.00
2023-04-25T00:59:54.306Z,2024.00
2023-04-25T01:00:54.424Z,2024.00
2023-04-25T01:01:54.409Z,2023.00
2023-04-25T01:02:54.585Z,2028.00
2023-04-25T01:03:54.860Z,2006.00
2023-04-25T01:04:54.551Z,2010.00
2023-04-25T01:05:54.652Z,2011.00
2023-04-25T01:06:54.634Z,2012.00
2023-04-25T01:07:54.708Z,2006.00
2023-04-25T01:08:54.765Z,2008.00
2023-04-25T01:09:54.830Z,2003.00
2023-04-25T01:10:54.862Z,2003.00
2023-04-25T01:11:54.898Z,2000.00
2023-04-25T01:12:54.949Z,2006.00
2023-04-25T01:13:55.009Z,2013.00
2023-04-25T01:14:55.048Z,2002.00
2023-04-25T01:15:55.062Z,1995.00
2023-04-25T01:16:55.150Z,2005.00
2023-04-25T01:17:55.206Z,2005.00
2023-04-25T01:18:55.182Z,1998.00
2023-04-25T01:19:55.248Z,1991.00
2023-04-25T01:20:55.239Z,2000.00
2023-04-25T01:21:55.257Z,2005.00
2023-04-25T01:22:55.330Z,1987.00
2023-04-25T01:23:55.335Z,1984.00
2023-04-25T01:24:55.384Z,1995.00
2023-04-25T01:25:55.430Z,1991.00
2023-04-25T01:26:55.500Z,1980.00
2023-04-25T01:27:55.547Z,1983.00
2023-04-25T01:28:55.611Z,1980.00
2023-04-25T01:29:55.618Z,1980.00
2023-04-25T01:30:55.816Z,1988.00
2023-04-25T01:31:55.723Z,1972.00
2023-04-25T01:32:55.759Z,1985.00
2023-04-25T01:33:55.757Z,1976.00
2023-04-25T01:34:55.800Z,1975.00
2023-04-25T01:35:55.830Z,1970.00
2023-04-25T01:36:55.854Z,1967.00
2023-04-25T01:37:55.930Z,1978.00
2023-04-25T01:38:55.945Z,1971.00
2023-04-25T01:39:56.271Z,1971.00
2023-04-25T01:40:55.987Z,1975.00
2023-04-25T01:41:57.417Z,1964.00
2023-04-25T01:42:56.056Z,1959.00
2023-04-25T01:43:56.125Z,1971.00
2023-04-25T01:44:56.149Z,1966.00
2023-04-25T01:45:56.256Z,1951.00
2023-04-25T01:46:56.235Z,1960.00
2023-04-25T01:47:56.324Z,1958.00
2023-04-25T01:48:56.342Z,1958.00
2023-04-25T01:49:56.391Z,1950.00
2023-04-25T01:50:56.458Z,1960.00
2023-04-25T01:51:56.495Z,1958.00
2023-04-25T01:52:56.554Z,1953.00
2023-04-25T01:53:56.592Z,1949.00
2023-04-25T01:54:56.654Z,1934.00
2023-04-25T01:55:56.728Z,1943.00
2023-04-25T01:56:56.735Z,1955.00
2023-04-25T01:57:56.793Z,1941.00
2023-04-25T01:58:56.816Z,1939.00
2023-04-25T01:59:56.904Z,1945.00
2023-04-25T02:00:56.952Z,1941.00
2023-04-25T02:01:57.062Z,1931.00
2023-04-25T02:02:57.095Z,1938.00
2023-04-25T02:03:57.496Z,1935.00
2023-04-25T02:04:57.193Z,1944.00
2023-04-25T02:05:57.213Z,1935.00
2023-04-25T02:06:57.293Z,1938.00
2023-04-25T02:07:57.293Z,1936.00
2023-04-25T02:08:57.291Z,1920.00
2023-04-25T02:09:57.330Z,1921.00
2023-04-25T02:10:57.347Z,1923.00
2023-04-25T02:11:57.382Z,1915.00
2023-04-25T02:12:57.356Z,1924.00
2023-04-25T02:13:57.405Z,1924.00
2023-04-25T02:14:57.430Z,1917.00
2023-04-25T02:15:57.572Z,1912.00
2023-04-25T02:16:57.586Z,1916.00
2023-04-25T02:17:57.501Z,1911.00
2023-04-25T02:18:57.510Z,1912.00
2023-04-25T02:19:57.560Z,1912.00
2023-04-25T02:20:57.555Z,1911.00
2023-04-25T02:21:57.572Z,1911.00
2023-04-25T02:22:57.585Z,1908.00
2023-04-25T02:23:57.602Z,1912.00
2023-04-25T02:24:57.628Z,1905.00
2023-04-25T02:25:57.649Z,1906.00
2023-04-25T02:26:57.649Z,1901.00
2023-04-25T02:27:57.671Z,1903.00
2023-04-25T02:28:57.690Z,1896.00
2023-04-25T02:29:57.725Z,1888.00
2023-04-25T02:30:57.789Z,1892.00
2023-04-25T02:31:57.813Z,1892.00
2023-04-25T02:32:57.853Z,1889.00
2023-04-25T02:33:57.806Z,1888.00
2023-04-25T02:34:57.841Z,1898.00
2023-04-25T02:35:57.840Z,1901.00
2023-04-25T02:36:57.843Z,1887.00
2023-04-25T02:37:57.848Z,1889.00
2023-04-25T02:38:57.873Z,1890.00
2023-04-25T02:39:57.892Z,1881.00
2023-04-25T02:40:57.849Z,1893.00
2023-04-25T02:41:57.859Z,1887.00
2023-04-25T02:42:57.863Z,1882.00
2023-04-25T02:43:57.851Z,1880.00
2023-04-25T02:44:57.882Z,1874.00
2023-04-25T02:45:57.844Z,1872.00
2023-04-25T02:46:57.859Z,1879.00
2023-04-25T02:47:57.941Z,1863.00
2023-04-25T02:48:57.858Z,1873.00
2023-04-25T02:49:57.866Z,1878.00
2023-04-25T02:50:57.889Z,1876.00
2023-04-25T02:51:57.856Z,1874.00
2023-04-25T02:52:57.871Z,1875.00
2023-04-25T02:53:57.890Z,1860.00
2023-04-25T02:54:57.907Z,1865.00
2023-04-25T02:55:57.925Z,1874.00
2023-04-25T02:56:57.933Z,1859.00
2023-04-25T02:57:57.923Z,1867.00
2023-04-25T02:58:57.935Z,1860.00
2023-04-25T02:59:57.941Z,1866.00
2023-04-25T03:00:58.010Z,1859.00
2023-04-25T03:01:57.939Z,1850.00
2023-04-25T03:02:58.084Z,1863.00
2023-04-25T03:03:57.965Z,1848.00
2023-04-25T03:04:57.977Z,1853.00
2023-04-25T03:05:57.956Z,1859.00
2023-04-25T03:06:57.996Z,1861.00
2023-04-25T03:07:57.987Z,1848.00
2023-04-25T03:08:58.016Z,1849.00
2023-04-25T03:09:57.971Z,1839.00
2023-04-25T03:10:57.960Z,1832.00
2023-04-25T03:11:58.004Z,1847.00
2023-04-25T03:12:57.971Z,1839.00
2023-04-25T03:13:57.953Z,1839.00
2023-04-25T03:14:57.978Z,1836.00
2023-04-25T03:15:57.953Z,1847.00
2023-04-25T03:16:58.023Z,1834.00
2023-04-25T03:17:57.995Z,1842.00
2023-04-25T03:18:57.959Z,1832.00
2023-04-25T03:19:57.966Z,1835.00
2023-04-25T03:20:57.973Z,1836.00
2023-04-25T03:21:57.946Z,1826.00
2023-04-25T03:22:57.978Z,1821.00
2023-04-25T03:23:57.947Z,1825.00
2023-04-25T03:24:57.954Z,1808.00
2023-04-25T03:25:57.959Z,1818.00
2023-04-25T03:26:57.940Z,1820.00
2023-04-25T03:27:57.953Z,1823.00
2023-04-25T03:28:57.954Z,1827.00
2023-04-25T03:29:57.935Z,1811.00
2023-04-25T03:30:57.929Z,1818.00
2023-04-25T03:31:57.974Z,1819.00
2023-04-25T03:32:57.947Z,1820.00
2023-04-25T03:33:57.916Z,1820.00
2023-04-25T03:34:57.904Z,1826.00
2023-04-25T03:35:57.870Z,1814.00
2023-04-25T03:36:57.913Z,1814.00
2023-04-25T03:37:57.898Z,1812.00
2023-04-25T03:38:57.931Z,1804.00
2023-04-25T03:39:57.878Z,1814.00
2023-04-25T03:40:57.911Z,1796.00
2023-04-25T03:41:57.871Z,1807.00
2023-04-25T03:42:57.886Z,1798.00
2023-04-25T03:43:57.871Z,1798.00
2023-04-25T03:44:57.877Z,1801.00
2023-04-25T03:45:57.928Z,1797.00
2023-04-25T03:46:57.862Z,1807.00
2023-04-25T03:47:57.918Z,1793.00
2023-04-25T03:48:57.868Z,1801.00
2023-04-25T03:49:57.861Z,1804.00
2023-04-25T03:50:57.861Z,1798.00
2023-04-25T03:51:57.895Z,1782.00
2023-04-25T03:52:57.862Z,1787.00
2023-04-25T03:53:57.888Z,1794.00
2023-04-25T03:54:57.863Z,1788.00
2023-04-25T03:55:57.869Z,1785.00
2023-04-25T03:56:57.898Z,1792.00
2023-04-25T03:57:57.870Z,1778.00
2023-04-25T03:58:57.872Z,1789.00
2023-04-25T03:59:57.892Z,1776.00
2023-04-25T04:00:57.861Z,1785.00
2023-04-25T04:01:57.859Z,1777.00
2023-04-25T04:02:57.918Z,1792.00
2023-04-25T04:03:58.197Z,1767.00
2023-04-25T04:04:58.027Z,1771.00
2023-04-25T04:05:57.940Z,1778.00
2023-04-25T04:06:57.834Z,1764.00
2023-04-25T04:07:57.832Z,1775.00
2023-04-25T04:08:57.835Z,1767.00
2023-04-25T04:09:57.829Z,1764.00
2023-04-25T04:10:57.815Z,1764.00
2023-04-25T04:11:57.816Z,1763.00
2023-04-25T04:12:57.837Z,1762.00
2023-04-25T04:13:57.800Z,1765.00
2023-04-25T04:14:57.819Z,1760.00
2023-04-25T04:15:57.839Z,1766.00
2023-04-25T04:16:57.792Z,1753.00
2023-04-25T04:17:57.830Z,1752.00
2023-04-25T04:18:57.800Z,1758.00
2023-04-25T04:19:57.802Z,1750.00
2023-04-25T04:20:57.816Z,1755.00
2023-04-25T04:21:57.807Z,1757.00
2023-04-25T04:22:57.820Z,1746.00
2023-04-25T04:23:57.825Z,1748.00
2023-04-25T04:24:57.868Z,1751.00
2023-04-25T04:25:57.815Z,1755.00
2023-04-25T04:26:57.826Z,1748.00
2023-04-25T04:27:57.846Z,1759.00
2023-04-25T04:28:57.821Z,1742.00
2023-04-25T04:29:57.860Z,1739.00
2023-04-25T04:30:57.870Z,1744.00
2023-04-25T04:31:57.872Z,1742.00
2023-04-25T04:32:57.869Z,1734.00
2023-04-25T04:33:57.821Z,1738.00
2023-04-25T04:34:58.308Z,1749.00
2023-04-25T04:35:57.869Z,1738.00
2023-04-25T04:36:57.868Z,1739.00
2023-04-25T04:37:57.835Z,1736.00
2023-04-25T04:38:57.854Z,1741.00
2023-04-25T04:39:57.826Z,1737.00
2023-04-25T04:40:57.855Z,1735.00
2023-04-25T04:41:57.830Z,1743.00
2023-04-25T04:42:57.849Z,1731.00
2023-04-25T04:43:57.864Z,1727.00
2023-04-25T04:44:57.855Z,1731.00
2023-04-25T04:45:57.836Z,1726.00
2023-04-25T04:46:57.896Z,1733.00
2023-04-25T04:47:57.898Z,1721.00
2023-04-25T04:48:57.838Z,1721.00
2023-04-25T04:49:57.846Z,1722.00
2023-04-25T04:50:57.881Z,1709.00
2023-04-25T04:51:59.665Z,1716.00
2023-04-25T04:52:57.814Z,1726.00
2023-04-25T04:53:57.817Z,1715.00
2023-04-25T04:54:57.845Z,1709.00
2023-04-25T04:55:57.826Z,1712.00
2023-04-25T04:56:57.864Z,1718.00
2023-04-25T04:57:57.842Z,1703.00
2023-04-25T04:58:57.839Z,1694.00
2023-04-25T04:59:57.828Z,1698.00
2023-04-25T05:00:57.852Z,1697.00
2023-04-25T05:01:57.838Z,1695.00
2023-04-25T05:02:57.886Z,1685.00
2023-04-25T05:03:58.260Z,1680.00
2023-04-25T05:04:58.058Z,1689.00
2023-04-25T05:05:57.805Z,1683.00
2023-04-25T05:06:57.809Z,1677.00
2023-04-25T05:07:57.798Z,1675.00
2023-04-25T05:08:57.799Z,1685.00
2023-04-25T05:09:57.807Z,1680.00
2023-04-25T05:10:57.818Z,1669.00
2023-04-25T05:11:57.802Z,1679.00
2023-04-25T05:12:57.813Z,1678.00
2023-04-25T05:13:57.789Z,1682.00
2023-04-25T05:14:57.790Z,1665.00
2023-04-25T05:15:57.789Z,1664.00
2023-04-25T05:16:57.794Z,1667.00
2023-04-25T05:17:57.868Z,1676.00
2023-04-25T05:18:57.785Z,1658.00
2023-04-25T05:19:57.800Z,1654.00
2023-04-25T05:20:57.811Z,1665.00
2023-04-25T05:21:57.789Z,1653.00
2023-04-25T05:22:57.805Z,1668.00
2023-04-25T05:23:57.766Z,1664.00
2023-04-25T05:24:57.791Z,1651.00
2023-04-25T05:25:57.811Z,1643.00
2023-04-25T05:26:57.798Z,1655.00
2023-04-25T05:27:57.793Z,1657.00
2023-04-25T05:28:57.772Z,1659.00
2023-04-25T05:29:57.757Z,1657.00
2023-04-25T05:30:57.803Z,1668.00
2023-04-25T05:31:57.930Z,1661.00
2023-04-25T05:32:58.349Z,1667.00
2023-04-25T05:33:57.918Z,1674.00
2023-04-25T05:34:58.018Z,1680.00
2023-04-25T05:35:58.031Z,1692.00
2023-04-25T05:36:58.099Z,1685.00
2023-04-25T05:37:58.386Z,1755.00
2023-04-25T05:38:58.266Z,1744.00
2023-04-25T05:39:58.267Z,1768.00
2023-04-25T05:40:58.295Z,1744.00
2023-04-25T05:41:58.325Z,1808.00
2023-04-25T05:42:58.944Z,1834.00
2023-04-25T05:43:59.621Z,1870.00
2023-04-25T05:44:58.463Z,1923.00
2023-04-25T05:45:58.508Z,1932.00
2023-04-25T05:46:58.444Z,1960.00
2023-04-25T05:47:58.910Z,2018.00
2023-04-25T05:48:58.468Z,2041.00
2023-04-25T05:49:58.478Z,1986.00
2023-04-25T05:50:58.885Z,2025.00
2023-04-25T05:51:58.487Z,2008.00
2023-04-25T05:52:58.502Z,2028.00
2023-04-25T05:53:58.506Z,2020.00
2023-04-25T05:54:58.520Z,2042.00
2023-04-25T05:55:58.565Z,2060.00
2023-04-25T05:56:58.659Z,2067.00
2023-04-25T05:57:58.595Z,2094.00
2023-04-25T05:58:58.592Z,2044.00
2023-04-25T05:59:58.564Z,1985.00
2023-04-25T06:00:58.563Z,1972.00
2023-04-25T06:01:58.607Z,2023.00
2023-04-25T06:02:58.679Z,2024.00
2023-04-25T06:03:58.975Z,2015.00
2023-04-25T06:04:58.816Z,1956.00
2023-04-25T06:05:58.643Z,1961.00
2023-04-25T06:06:58.590Z,1971.00
2023-04-25T06:07:58.575Z,1932.00
2023-04-25T06:08:58.576Z,1908.00
2023-04-25T06:09:58.622Z,1964.00
2023-04-25T06:10:58.642Z,1971.00
2023-04-25T06:11:58.598Z,1974.00
2023-04-25T06:12:58.585Z,1951.00
2023-04-25T06:13:58.587Z,1984.00
2023-04-25T06:14:58.618Z,1961.00
2023-04-25T06:15:58.627Z,1928.00
2023-04-25T06:16:58.592Z,1950.00
2023-04-25T06:17:58.626Z,1975.00
2023-04-25T06:18:58.634Z,1968.00
2023-04-25T06:19:58.601Z,1968.00
2023-04-25T06:20:58.624Z,1958.00
2023-04-25T06:21:58.694Z,1983.00
2023-04-25T06:22:58.747Z,1985.00
2023-04-25T06:23:58.798Z,2009.00
2023-04-25T06:24:58.878Z,1999.00
2023-04-25T06:25:58.945Z,2012.00
2023-04-25T06:26:58.983Z,2039.00
2023-04-25T06:27:59.051Z,2053.00
2023-04-25T06:28:59.111Z,2071.00
2023-04-25T06:29:59.197Z,2063.00
2023-04-25T06:30:59.237Z,2077.00
2023-04-25T06:31:59.289Z,2054.00
2023-04-25T06:32:59.425Z,2057.00
2023-04-25T06:33:59.399Z,2055.00
2023-04-25T06:34:59.505Z,2090.00
2023-04-25T06:35:59.445Z,2103.00
2023-04-25T06:36:59.500Z,2124.00
2023-04-25T06:37:59.870Z,2112.00
2023-04-25T06:38:59.564Z,2105.00
2023-04-25T06:39:59.583Z,2120.00
2023-04-25T06:40:59.655Z,2158.00
2023-04-25T06:41:59.632Z,2189.00
2023-04-25T06:42:59.909Z,2207.00
2023-04-25T06:43:59.671Z,2216.00
2023-04-25T06:44:59.674Z,2220.00
2023-04-25T06:45:59.677Z,2233.00
2023-04-25T06:46:59.708Z,2237.00
2023-04-25T06:47:59.749Z,2218.00
2023-04-25T06:48:59.730Z,2235.00
2023-04-25T06:49:59.729Z,2291.00
2023-04-25T06:50:59.756Z,2316.00
2023-04-25T06:51:59.763Z,2300.00
2023-04-25T06:52:59.757Z,2296.00
2023-04-25T06:53:59.826Z,2301.00
2023-04-25T06:54:59.797Z,2290.00
2023-04-25T06:55:59.874Z,2295.00
2023-04-25T06:56:59.855Z,2325.00
2023-04-25T06:57:59.892Z,2352.00
2023-04-25T06:58:59.829Z,2355.00
2023-04-25T07:00:02.085Z,2397.00
2023-04-25T07:01:00.152Z,2413.00
2023-04-25T07:02:00.046Z,2448.00
2023-04-25T07:03:00.168Z,2452.00
2023-04-25T07:04:00.381Z,2494.00
2023-04-25T07:05:00.056Z,2506.00
2023-04-25T07:06:00.090Z,2529.00
2023-04-25T07:07:00.091Z,2542.00
2023-04-25T07:08:00.054Z,2556.00
2023-04-25T07:09:00.059Z,2587.00
2023-04-25T07:10:00.056Z,2612.00
2023-04-25T07:11:00.071Z,2612.00
2023-04-25T07:12:00.050Z,2639.00
2023-04-25T07:13:00.376Z,2642.00
2023-04-25T07:14:00.066Z,2660.00
2023-04-25T07:15:00.043Z,2663.00
2023-04-25T07:16:00.415Z,2685.00
2023-04-25T07:17:00.177Z,2691.00
2023-04-25T07:18:00.479Z,2703.00
2023-04-25T07:19:00.123Z,2727.00
2023-04-25T07:20:00.193Z,2717.00
2023-04-25T07:21:00.144Z,2719.00
2023-04-25T07:22:00.205Z,2729.00
2023-04-25T07:23:00.289Z,2757.00
2023-04-25T07:24:00.299Z,2772.00
2023-04-25T07:25:00.374Z,2776.00
2023-04-25T07:26:00.426Z,2784.00
2023-04-25T07:27:00.464Z,2794.00
2023-04-25T07:28:00.573Z,2822.00
2023-04-25T07:29:00.613Z,2837.00
2023-04-25T07:30:00.697Z,2864.00
2023-04-25T07:31:00.744Z,2875.00
2023-04-25T07:32:00.877Z,2867.00
2023-04-25T07:33:01.476Z,2883.00
2023-04-25T07:34:02.234Z,2811.00
2023-04-25T07:35:01.082Z,2724.00
2023-04-25T07:36:01.403Z,2699.00
2023-04-25T07:37:01.087Z,2694.00
2023-04-25T07:38:01.948Z,2601.00
2023-04-25T07:39:01.108Z,2226.00
2023-04-25T07:40:01.118Z,2156.00
2023-04-25T07:41:01.401Z,2129.00
2023-04-25T07:42:01.147Z,1934.00
2023-04-25T07:43:01.341Z,1776.00
2023-04-25T07:44:01.157Z,1667.00
2023-04-25T07:45:01.172Z,1581.00
2023-04-25T07:46:01.268Z,1576.00
2023-04-25T07:47:03.161Z,1461.00
2023-04-25T07:48:01.261Z,1415.00
2023-04-25T07:49:01.930Z,1336.00
2023-04-25T07:50:01.211Z,1297.00
2023-04-25T07:51:01.197Z,1211.00
2023-04-25T07:52:01.210Z,1227.00
2023-04-25T07:53:01.502Z,1185.00
2023-04-25T07:54:01.423Z,1213.00
2023-04-25T07:55:01.189Z,1229.00
2023-04-25T07:56:01.206Z,1198.00
2023-04-25T07:57:01.168Z,1149.00
2023-04-25T07:58:01.255Z,1025.00
2023-04-25T07:59:01.387Z,944.00
2023-04-25T08:00:01.187Z,978.00
2023-04-25T08:01:01.214Z,951.00
2023-04-25T08:02:01.208Z,940.00
2023-04-25T08:03:01.253Z,900.00
2023-04-25T08:04:01.414Z,899.00
2023-04-25T08:05:01.621Z,927.00
2023-04-25T08:06:03.433Z,876.00
2023-04-25T08:07:01.109Z,877.00
2023-04-25T08:08:01.081Z,873.00
2023-04-25T08:09:01.425Z,849.00
2023-04-25T08:10:01.114Z,836.00
2023-04-25T08:11:01.423Z,711.00
2023-04-25T08:12:01.134Z,663.00
2023-04-25T08:13:01.063Z,654.00
2023-04-25T08:14:01.078Z,655.00
2023-04-25T08:15:01.095Z,654.00
2023-04-25T08:16:01.448Z,650.00
2023-04-25T08:17:01.181Z,642.00
2023-04-25T08:18:01.074Z,630.00
2023-04-25T08:19:01.104Z,618.00
2023-04-25T08:20:01.026Z,616.00
2023-04-25T08:21:01.030Z,604.00
2023-04-25T08:22:00.987Z,604.00
2023-04-25T08:23:00.963Z,587.00
2023-04-25T08:24:00.985Z,587.00
2023-04-25T08:25:00.959Z,629.00
2023-04-25T08:26:01.041Z,850.00
2023-04-25T08:27:01.907Z,947.00
2023-04-25T08:28:01.103Z,810.00
2023-04-25T08:29:01.413Z,713.00
2023-04-25T08:30:00.920Z,639.00
2023-04-25T08:31:01.053Z,614.00
2023-04-25T08:32:00.977Z,590.00
2023-04-25T08:33:00.928Z,556.00
2023-04-25T08:34:00.969Z,556.00
2023-04-25T08:35:01.001Z,544.00
2023-04-25T08:36:00.974Z,533.00
2023-04-25T08:37:01.022Z,523.00
2023-04-25T08:38:00.918Z,679.00
2023-04-25T08:39:01.079Z,924.00
2023-04-25T08:40:00.861Z,948.00
2023-04-25T08:41:00.869Z,989.00
2023-04-25T08:42:00.929Z,1177.00
2023-04-25T08:43:00.857Z,1291.00
2023-04-25T08:44:00.923Z,1385.00
2023-04-25T08:45:00.872Z,1494.00
2023-04-25T08:46:00.813Z,1531.00
2023-04-25T08:47:00.853Z,1615.00
2023-04-25T08:48:00.856Z,1645.00
2023-04-25T08:49:00.794Z,1678.00
2023-04-25T08:50:00.815Z,1689.00
2023-04-25T08:51:00.947Z,1677.00
2023-04-25T08:52:00.773Z,1589.00
2023-04-25T08:53:00.954Z,1632.00
2023-04-25T08:54:08.926Z,1632.00
2023-04-25T08:55:01.843Z,1574.00
2023-04-25T08:56:00.769Z,1471.00
2023-04-25T08:57:00.768Z,1364.00
2023-04-25T08:58:00.797Z,1311.00
2023-04-25T08:59:02.458Z,1161.00
2023-04-25T09:00:00.850Z,1016.00
2023-04-25T09:01:00.770Z,975.00
2023-04-25T09:02:00.737Z,1025.00
2023-04-25T09:03:00.924Z,1157.00
2023-04-25T09:04:00.802Z,1252.00
2023-04-25T09:05:00.695Z,1380.00
2023-04-25T09:06:00.726Z,1085.00
2023-04-25T09:07:00.717Z,827.00
2023-04-25T09:08:00.750Z,829.00
2023-04-25T09:09:00.726Z,638.00
2023-04-25T09:10:00.728Z,666.00
2023-04-25T09:11:00.716Z,871.00
2023-04-25T09:12:00.858Z,1008.00
2023-04-25T09:13:00.726Z,1069.00
2023-04-25T09:14:00.734Z,1193.00
2023-04-25T09:15:00.734Z,1217.00
2023-04-25T09:16:00.734Z,1221.00
2023-04-25T09:17:01.031Z,1265.00
2023-04-25T09:18:00.761Z,1318.00
2023-04-25T09:19:00.772Z,1386.00
2023-04-25T09:20:00.736Z,1452.00
2023-04-25T09:21:02.241Z,1472.00
2023-04-25T09:22:01.714Z,1473.00
2023-04-25T09:23:00.726Z,1479.00
2023-04-25T09:24:00.707Z,1483.00
2023-04-25T09:25:00.717Z,1501.00
2023-04-25T09:26:00.676Z,1507.00
2023-04-25T09:27:00.708Z,1487.00
2023-04-25T09:28:00.740Z,1451.00
2023-04-25T09:29:00.669Z,1443.00
2023-04-25T09:30:00.747Z,1447.00
2023-04-25T09:31:00.838Z,1440.00
2023-04-25T09:32:00.972Z,1425.00
2023-04-25T09:33:00.985Z,1425.00
2023-04-25T09:34:01.325Z,1166.00
2023-04-25T09:35:01.006Z,665.00
2023-04-25T09:36:00.978Z,557.00
2023-04-25T09:37:01.485Z,494.00
2023-04-25T09:38:00.989Z,484.00
2023-04-25T09:39:01.036Z,492.00
2023-04-25T09:40:01.009Z,487.00
2023-04-25T09:41:02.155Z,513.00
2023-04-25T09:42:01.146Z,498.00
2023-04-25T09:43:01.126Z,495.00
2023-04-25T09:44:01.531Z,497.00
2023-04-25T09:45:01.215Z,496.00
2023-04-25T09:46:01.309Z,499.00
2023-04-25T09:47:01.506Z,512.00
2023-04-25T09:48:01.353Z,486.00
2023-04-25T09:49:01.473Z,514.00
2023-04-25T09:50:01.535Z,502.00
2023-04-25T09:51:02.475Z,503.00
2023-04-25T09:52:02.086Z,502.00
2023-04-25T09:53:01.593Z,491.00
2023-04-25T09:54:01.658Z,514.00
2023-04-25T09:55:01.761Z,507.00
2023-04-25T09:56:01.821Z,524.00
2023-04-25T09:57:01.929Z,515.00
2023-04-25T09:58:02.019Z,517.00
2023-04-25T09:59:02.015Z,508.00
2023-04-25T10:00:02.130Z,508.00
2023-04-25T10:01:02.126Z,509.00
2023-04-25T10:02:02.184Z,505.00
2023-04-25T10:03:02.254Z,505.00
2023-04-25T10:04:02.697Z,536.00
2023-04-25T10:05:02.542Z,530.00
2023-04-25T10:06:03.228Z,532.00
2023-04-25T10:07:02.490Z,543.00
2023-04-25T10:08:02.184Z,551.00
2023-04-25T10:09:02.235Z,551.00
2023-04-25T10:10:02.205Z,572.00
2023-04-25T10:11:02.180Z,588.00
2023-04-25T10:12:02.518Z,568.00
2023-04-25T10:13:02.239Z,499.00
2023-04-25T10:14:02.189Z,503.00
2023-04-25T10:15:02.240Z,513.00
2023-04-25T10:16:02.386Z,514.00
2023-04-25T10:17:02.395Z,510.00
2023-04-25T10:18:02.324Z,529.00
2023-04-25T10:19:02.491Z,505.00
2023-04-25T10:20:02.449Z,500.00
2023-04-25T10:21:02.423Z,519.00
2023-04-25T10:22:02.520Z,549.00
2023-04-25T10:23:02.448Z,529.00
2023-04-25T10:24:02.510Z,484.00
2023-04-25T10:25:02.518Z,520.00
2023-04-25T10:26:02.512Z,539.00
2023-04-25T10:27:02.967Z,621.00
2023-04-25T10:28:02.552Z,1008.00
2023-04-25T10:29:02.562Z,1242.00
2023-04-25T10:30:02.573Z,1496.00
2023-04-25T10:31:02.711Z,1738.00
2023-04-25T10:32:02.636Z,1856.00
2023-04-25T10:33:02.681Z,2048.00
2023-04-25T10:34:02.781Z,2209.00
2023-04-25T10:35:02.783Z,2366.00
2023-04-25T10:36:02.812Z,2466.00
2023-04-25T10:37:02.823Z,2562.00
2023-04-25T10:38:02.891Z,2661.00
2023-04-25T10:39:02.856Z,2735.00
2023-04-25T10:40:02.871Z,2831.00
2023-04-25T10:41:02.851Z,2886.00
2023-04-25T10:42:02.850Z,2967.00
2023-04-25T10:43:02.821Z,3015.00
2023-04-25T10:44:02.822Z,3055.00
2023-04-25T10:45:02.916Z,3117.00
2023-04-25T10:46:02.872Z,3175.00
2023-04-25T10:47:03.081Z,3234.00
2023-04-25T10:48:03.043Z,3331.00
2023-04-25T10:49:03.054Z,3380.00
2023-04-25T10:50:03.514Z,3414.00
2023-04-25T10:51:03.185Z,3464.00
2023-04-25T10:52:03.209Z,3517.00
2023-04-25T10:53:03.275Z,3545.00
2023-04-25T10:54:03.333Z,3587.00
2023-04-25T10:55:03.395Z,3607.00
2023-04-25T10:56:03.407Z,3653.00
2023-04-25T10:57:03.470Z,3674.00
2023-04-25T10:58:03.501Z,3694.00
2023-04-25T10:59:03.519Z,3727.00
2023-04-25T11:00:03.565Z,3742.00
2023-04-25T11:01:03.632Z,3765.00
2023-04-25T11:02:03.723Z,3791.00
2023-04-25T11:03:03.801Z,3826.00
2023-04-25T11:04:03.870Z,3847.00
2023-04-25T11:05:03.715Z,3854.00
2023-04-25T11:06:03.749Z,3885.00
2023-04-25T11:07:07.135Z,3894.00
2023-04-25T11:09:04.733Z,3898.00
2023-04-25T11:10:03.969Z,3909.00
2023-04-25T11:11:03.733Z,3930.00
2023-04-25T11:12:03.990Z,3969.00
2023-04-25T11:13:03.719Z,4039.00
2023-04-25T11:14:04.484Z,4062.00
2023-04-25T11:14:38.051Z,3896.00
2023-04-25T11:15:03.990Z,4075.00
2023-04-25T11:16:12.533Z,4090.00
2023-04-25T11:17:05.087Z,4091.00
2023-04-25T11:18:04.063Z,4088.00
2023-04-25T11:19:03.914Z,4040.00
2023-04-25T11:20:03.935Z,4058.00
2023-04-25T11:21:03.918Z,4077.00
2023-04-25T11:22:04.063Z,4079.00
2023-04-25T11:24:03.985Z,4080.00
2023-04-25T11:25:03.996Z,4067.00
2023-04-25T11:26:04.081Z,4068.00
2023-04-25T11:27:04.472Z,4062.00
2023-04-25T11:28:04.103Z,4067.00
2023-04-25T11:29:04.121Z,4078.00
2023-04-25T11:30:04.175Z,4051.00
2023-04-25T11:31:04.194Z,4061.00
2023-04-25T11:32:04.566Z,4058.00
2023-04-25T11:33:04.393Z,4061.00
2023-04-25T11:34:04.326Z,4045.00
2023-04-25T11:35:04.378Z,4046.00
2023-04-25T11:36:04.439Z,4031.00
2023-04-25T11:37:04.509Z,4039.00
2023-04-25T11:38:04.535Z,4019.00
2023-04-25T11:39:04.915Z,4015.00
2023-04-25T11:40:04.649Z,4009.00
2023-04-25T11:41:04.740Z,4013.00
2023-04-25T11:42:08.012Z,3996.00
2023-04-25T11:43:05.755Z,3996.00
2023-04-25T11:44:04.897Z,3996.00
2023-04-25T11:45:04.810Z,3994.00
2023-04-25T11:46:04.747Z,3995.00
2023-04-25T11:47:04.738Z,3967.00
2023-04-25T11:48:04.916Z,3949.00
2023-04-25T11:49:04.722Z,3939.00
2023-04-25T11:50:04.719Z,3936.00
2023-04-25T11:51:04.698Z,3932.00
2023-04-25T11:52:04.715Z,3925.00
2023-04-25T11:53:04.739Z,3916.00
2023-04-25T11:54:04.796Z,3901.00
2023-04-25T11:55:04.883Z,3898.00
2023-04-25T11:56:05.012Z,3904.00
2023-04-25T11:57:04.932Z,3883.00
2023-04-25T11:58:05.000Z,3859.00
2023-04-25T11:59:05.042Z,3857.00
2023-04-25T12:00:05.117Z,3848.00
2023-04-25T12:01:05.152Z,3849.00
2023-04-25T12:02:05.186Z,3836.00
2023-04-25T12:03:05.353Z,3824.00
2023-04-25T12:04:05.696Z,3827.00
2023-04-25T12:05:21.651Z,3834.00
2023-04-25T12:06:06.504Z,3835.00
2023-04-25T12:07:05.339Z,3830.00
2023-04-25T12:08:05.340Z,3822.00
2023-04-25T12:09:05.404Z,3803.00
2023-04-25T12:10:05.480Z,3815.00